sensor_id;sensor_type;location;lat;lon;timestamp;pressure;altitude;pressure_sealevel;temperature;humidity
41967;BME280;27656;53.068;8.818;2024-01-15T00:01:30;99566.19;;;0.51;100.00
41967;BME280;27656;53.068;8.818;2024-01-15T00:03:56;99577.06;;;0.45;100.00
41967;BME280;27656;53.068;8.818;2024-01-15T00:06:23;99583.19;;;0.55;100.00
41967;BME280;27656;53.068;8.818;2024-01-15T00:08:50;99572.19;;;0.51;100.00
41967;BME280;27656;53.068;8.818;2024-01-15T00:11:16;99572.56;;;0.47;100.00
41967;BME280;27656;53.068;8.818;2024-01-15T00:13:43;99563.84;;;0.48;100.00
41967;BME280;27656;53.068;8.818;2024-01-15T00:16:09;99545.91;;;0.45;100.00
41967;BME280;27656;53.068;8.818;2024-01-15T00:18:36;99554.97;;;0.50;100.00
41967;BME280;27656;53.068;8.818;2024-01-15T00:21:03;99542.16;;;0.70;100.00
41967;BME280;27656;53.068;8.818;2024-01-15T00:23:30;99549.31;;;0.77;100.00
41967;BME280;27656;53.068;8.818;2024-01-15T00:25:56;99546.44;;;0.80;100.00
41967;BME280;27656;53.068;8.818;2024-01-15T00:28:22;99550.84;;;1.01;100.00
41967;BME280;27656;53.068;8.818;2024-01-15T00:30:49;99554.84;;;1.05;100.00
41967;BME280;27656;53.068;8.818;2024-01-15T00:33:15;99544.13;;;1.19;100.00
41967;BME280;27656;53.068;8.818;2024-01-15T00:35:42;99516.22;;;1.21;100.00
41967;BME280;27656;53.068;8.818;2024-01-15T00:38:09;99535.25;;;1.22;100.00
41967;BME280;27656;53.068;8.818;2024-01-15T00:40:35;99546.28;;;1.14;100.00
41967;BME280;27656;53.068;8.818;2024-01-15T00:43:02;99541.53;;;1.19;100.00
41967;BME280;27656;53.068;8.818;2024-01-15T00:45:28;99544.22;;;1.18;100.00
41967;BME280;27656;53.068;8.818;2024-01-15T00:47:55;99548.78;;;1.25;100.00
41967;BME280;27656;53.068;8.818;2024-01-15T00:50:23;99541.56;;;1.29;100.00
41967;BME280;27656;53.068;8.818;2024-01-15T00:52:49;99537.13;;;1.41;100.00
41967;BME280;27656;53.068;8.818;2024-01-15T00:55:16;99526.97;;;1.38;100.00
41967;BME280;27656;53.068;8.818;2024-01-15T00:57:42;99526.28;;;1.36;100.00
41967;BME280;27656;53.068;8.818;2024-01-15T01:00:09;99527.25;;;1.44;100.00
41967;BME280;27656;53.068;8.818;2024-01-15T01:02:35;99519.34;;;1.46;100.00
41967;BME280;27656;53.068;8.818;2024-01-15T01:05:02;99512.03;;;1.40;100.00
41967;BME280;27656;53.068;8.818;2024-01-15T01:07:29;99511.31;;;1.28;100.00
41967;BME280;27656;53.068;8.818;2024-01-15T01:09:56;99517.91;;;1.32;100.00
41967;BME280;27656;53.068;8.818;2024-01-15T01:12:22;99502.59;;;1.39;100.00
41967;BME280;27656;53.068;8.818;2024-01-15T01:14:49;99504.91;;;1.32;100.00
41967;BME280;27656;53.068;8.818;2024-01-15T01:17:15;99494.94;;;1.37;100.00
41967;BME280;27656;53.068;8.818;2024-01-15T01:19:42;99506.44;;;1.44;100.00
41967;BME280;27656;53.068;8.818;2024-01-15T01:22:09;99510.28;;;1.40;100.00
41967;BME280;27656;53.068;8.818;2024-01-15T01:24:35;99498.81;;;1.43;100.00
41967;BME280;27656;53.068;8.818;2024-01-15T01:27:02;99491.00;;;1.43;100.00
41967;BME280;27656;53.068;8.818;2024-01-15T01:29:28;99496.00;;;1.35;100.00
41967;BME280;27656;53.068;8.818;2024-01-15T01:31:55;99502.59;;;1.39;100.00
41967;BME280;27656;53.068;8.818;2024-01-15T01:34:22;99496.81;;;1.35;100.00
41967;BME280;27656;53.068;8.818;2024-01-15T01:36:49;99485.19;;;1.30;100.00
41967;BME280;27656;53.068;8.818;2024-01-15T01:39:16;99496.94;;;1.24;100.00
41967;BME280;27656;53.068;8.818;2024-01-15T01:41:43;99497.41;;;1.08;100.00
41967;BME280;27656;53.068;8.818;2024-01-15T01:44:09;99499.88;;;1.10;100.00
41967;BME280;27656;53.068;8.818;2024-01-15T01:46:36;99494.25;;;1.04;100.00
41967;BME280;27656;53.068;8.818;2024-01-15T01:49:07;99498.03;;;1.00;100.00
41967;BME280;27656;53.068;8.818;2024-01-15T01:51:35;99499.69;;;1.01;100.00
41967;BME280;27656;53.068;8.818;2024-01-15T01:54:04;99490.38;;;0.99;100.00
41967;BME280;27656;53.068;8.818;2024-01-15T01:56:33;99493.53;;;1.02;100.00
41967;BME280;27656;53.068;8.818;2024-01-15T01:59:01;99500.00;;;1.08;100.00
41967;BME280;27656;53.068;8.818;2024-01-15T02:01:29;99488.91;;;1.06;100.00
41967;BME280;27656;53.068;8.818;2024-01-15T02:03:56;99481.91;;;1.06;100.00
41967;BME280;27656;53.068;8.818;2024-01-15T02:06:23;99463.94;;;0.94;100.00
41967;BME280;27656;53.068;8.818;2024-01-15T02:08:50;99484.78;;;1.03;100.00
41967;BME280;27656;53.068;8.818;2024-01-15T02:11:16;99482.94;;;1.15;100.00
41967;BME280;27656;53.068;8.818;2024-01-15T02:13:43;99484.97;;;1.12;100.00
41967;BME280;27656;53.068;8.818;2024-01-15T02:16:10;99475.34;;;1.02;100.00
41967;BME280;27656;53.068;8.818;2024-01-15T02:18:43;99473.19;;;1.08;100.00
41967;BME280;27656;53.068;8.818;2024-01-15T02:21:10;99477.72;;;1.15;100.00
41967;BME280;27656;53.068;8.818;2024-01-15T02:23:38;99476.91;;;1.15;100.00
41967;BME280;27656;53.068;8.818;2024-01-15T02:26:05;99466.25;;;1.18;100.00
41967;BME280;27656;53.068;8.818;2024-01-15T02:28:32;99466.13;;;1.19;100.00
41967;BME280;27656;53.068;8.818;2024-01-15T02:30:59;99468.06;;;1.27;100.00
41967;BME280;27656;53.068;8.818;2024-01-15T02:33:26;99467.28;;;1.36;100.00
41967;BME280;27656;53.068;8.818;2024-01-15T02:35:53;99455.53;;;1.42;100.00
41967;BME280;27656;53.068;8.818;2024-01-15T02:38:19;99466.63;;;1.44;100.00
41967;BME280;27656;53.068;8.818;2024-01-15T02:40:46;99456.63;;;1.39;100.00
41967;BME280;27656;53.068;8.818;2024-01-15T02:43:13;99465.41;;;1.48;100.00
41967;BME280;27656;53.068;8.818;2024-01-15T02:45:40;99463.50;;;1.50;100.00
41967;BME280;27656;53.068;8.818;2024-01-15T02:48:07;99461.16;;;1.47;100.00
41967;BME280;27656;53.068;8.818;2024-01-15T02:50:33;99466.53;;;1.55;100.00
41967;BME280;27656;53.068;8.818;2024-01-15T02:53:00;99474.03;;;1.48;100.00
41967;BME280;27656;53.068;8.818;2024-01-15T02:55:26;99469.66;;;1.49;100.00
41967;BME280;27656;53.068;8.818;2024-01-15T02:57:55;99475.28;;;1.54;100.00
41967;BME280;27656;53.068;8.818;2024-01-15T03:00:22;99479.13;;;1.50;100.00
41967;BME280;27656;53.068;8.818;2024-01-15T03:02:50;99470.59;;;1.38;100.00
41967;BME280;27656;53.068;8.818;2024-01-15T03:05:17;99472.50;;;1.36;100.00
41967;BME280;27656;53.068;8.818;2024-01-15T03:07:44;99474.47;;;1.23;100.00
41967;BME280;27656;53.068;8.818;2024-01-15T03:10:10;99473.03;;;1.09;100.00
41967;BME280;27656;53.068;8.818;2024-01-15T03:12:37;99466.59;;;1.03;100.00
41967;BME280;27656;53.068;8.818;2024-01-15T03:15:04;99471.63;;;0.95;100.00
41967;BME280;27656;53.068;8.818;2024-01-15T03:17:30;99471.84;;;0.92;100.00
41967;BME280;27656;53.068;8.818;2024-01-15T03:19:57;99477.06;;;0.92;100.00
41967;BME280;27656;53.068;8.818;2024-01-15T03:22:23;99475.41;;;0.91;100.00
41967;BME280;27656;53.068;8.818;2024-01-15T03:24:50;99477.91;;;0.93;100.00
41967;BME280;27656;53.068;8.818;2024-01-15T03:27:16;99480.75;;;0.90;100.00
41967;BME280;27656;53.068;8.818;2024-01-15T03:29:43;99478.13;;;0.90;100.00
41967;BME280;27656;53.068;8.818;2024-01-15T03:32:10;99481.38;;;1.03;100.00
41967;BME280;27656;53.068;8.818;2024-01-15T03:34:36;99468.19;;;0.95;100.00
41967;BME280;27656;53.068;8.818;2024-01-15T03:37:03;99484.66;;;1.05;100.00
41967;BME280;27656;53.068;8.818;2024-01-15T03:39:30;99472.09;;;1.10;100.00
41967;BME280;27656;53.068;8.818;2024-01-15T03:41:56;99458.16;;;0.90;100.00
41967;BME280;27656;53.068;8.818;2024-01-15T03:44:23;99462.16;;;0.94;100.00
41967;BME280;27656;53.068;8.818;2024-01-15T03:46:50;99460.16;;;0.98;100.00
41967;BME280;27656;53.068;8.818;2024-01-15T03:49:16;99469.63;;;1.09;100.00
41967;BME280;27656;53.068;8.818;2024-01-15T03:51:43;99472.81;;;1.12;100.00
41967;BME280;27656;53.068;8.818;2024-01-15T03:54:09;99464.03;;;1.13;100.00
41967;BME280;27656;53.068;8.818;2024-01-15T03:56:36;99472.97;;;1.20;100.00
41967;BME280;27656;53.068;8.818;2024-01-15T03:59:02;99468.31;;;1.14;100.00
41967;BME280;27656;53.068;8.818;2024-01-15T04:01:29;99478.81;;;1.13;100.00
41967;BME280;27656;53.068;8.818;2024-01-15T04:03:56;99478.44;;;1.17;100.00
41967;BME280;27656;53.068;8.818;2024-01-15T04:06:22;99482.13;;;1.15;100.00
41967;BME280;27656;53.068;8.818;2024-01-15T04:08:49;99470.97;;;1.03;100.00
41967;BME280;27656;53.068;8.818;2024-01-15T04:11:15;99475.34;;;1.02;100.00
41967;BME280;27656;53.068;8.818;2024-01-15T04:13:42;99474.31;;;1.15;100.00
41967;BME280;27656;53.068;8.818;2024-01-15T04:16:08;99482.28;;;1.23;100.00
41967;BME280;27656;53.068;8.818;2024-01-15T04:18:35;99482.03;;;1.26;100.00
41967;BME280;27656;53.068;8.818;2024-01-15T04:21:04;99501.09;;;1.36;100.00
41967;BME280;27656;53.068;8.818;2024-01-15T04:23:32;99508.94;;;1.46;100.00
41967;BME280;27656;53.068;8.818;2024-01-15T04:25:59;99501.91;;;1.37;100.00
41967;BME280;27656;53.068;8.818;2024-01-15T04:28:25;99484.09;;;1.32;100.00
41967;BME280;27656;53.068;8.818;2024-01-15T04:30:52;99483.25;;;1.22;100.00
41967;BME280;27656;53.068;8.818;2024-01-15T04:33:18;99481.88;;;1.27;100.00
41967;BME280;27656;53.068;8.818;2024-01-15T04:35:45;99484.44;;;1.18;100.00
41967;BME280;27656;53.068;8.818;2024-01-15T04:38:12;99494.06;;;1.27;100.00
41967;BME280;27656;53.068;8.818;2024-01-15T04:40:39;99484.75;;;1.24;100.00
41967;BME280;27656;53.068;8.818;2024-01-15T04:43:06;99481.88;;;1.27;100.00
41967;BME280;27656;53.068;8.818;2024-01-15T04:45:32;99489.34;;;1.42;100.00
41967;BME280;27656;53.068;8.818;2024-01-15T04:47:59;99486.63;;;1.43;100.00
41967;BME280;27656;53.068;8.818;2024-01-15T04:50:25;99485.09;;;1.41;100.00
41967;BME280;27656;53.068;8.818;2024-01-15T04:52:52;99482.09;;;1.45;100.00
41967;BME280;27656;53.068;8.818;2024-01-15T04:55:18;99473.50;;;1.45;100.00
41967;BME280;27656;53.068;8.818;2024-01-15T04:57:45;99483.28;;;1.32;100.00
41967;BME280;27656;53.068;8.818;2024-01-15T05:00:12;99471.47;;;1.27;100.00
41967;BME280;27656;53.068;8.818;2024-01-15T05:02:39;99473.28;;;1.27;100.00
41967;BME280;27656;53.068;8.818;2024-01-15T05:05:06;99466.63;;;1.13;100.00
41967;BME280;27656;53.068;8.818;2024-01-15T05:07:32;99472.09;;;1.10;100.00
41967;BME280;27656;53.068;8.818;2024-01-15T05:09:59;99468.81;;;1.08;100.00
41967;BME280;27656;53.068;8.818;2024-01-15T05:12:26;99471.91;;;1.02;100.00
41967;BME280;27656;53.068;8.818;2024-01-15T05:14:52;99470.66;;;0.96;100.00
41967;BME280;27656;53.068;8.818;2024-01-15T05:17:18;99467.94;;;0.98;100.00
41967;BME280;27656;53.068;8.818;2024-01-15T05:19:45;99470.94;;;0.93;100.00
41967;BME280;27656;53.068;8.818;2024-01-15T05:22:12;99470.78;;;0.95;100.00
41967;BME280;27656;53.068;8.818;2024-01-15T05:24:38;99474.00;;;1.08;100.00
41967;BME280;27656;53.068;8.818;2024-01-15T05:27:05;99475.94;;;1.16;100.00
41967;BME280;27656;53.068;8.818;2024-01-15T05:29:31;99469.94;;;1.15;100.00
41967;BME280;27656;53.068;8.818;2024-01-15T05:31:57;99462.94;;;1.16;100.00
41967;BME280;27656;53.068;8.818;2024-01-15T05:34:28;99459.97;;;1.20;100.00
41967;BME280;27656;53.068;8.818;2024-01-15T05:36:54;99463.66;;;1.18;100.00
41967;BME280;27656;53.068;8.818;2024-01-15T05:39:21;99467.91;;;1.19;100.00
41967;BME280;27656;53.068;8.818;2024-01-15T05:41:49;99457.22;;;1.12;100.00
41967;BME280;27656;53.068;8.818;2024-01-15T05:44:16;99453.22;;;1.08;100.00
41967;BME280;27656;53.068;8.818;2024-01-15T05:46:42;99462.63;;;1.09;100.00
41967;BME280;27656;53.068;8.818;2024-01-15T05:49:09;99465.03;;;1.22;100.00
41967;BME280;27656;53.068;8.818;2024-01-15T05:51:35;99466.28;;;1.27;100.00
41967;BME280;27656;53.068;8.818;2024-01-15T05:54:03;99467.94;;;1.29;100.00
41967;BME280;27656;53.068;8.818;2024-01-15T05:56:29;99475.91;;;1.37;100.00
41967;BME280;27656;53.068;8.818;2024-01-15T05:58:56;99487.50;;;1.33;100.00
41967;BME280;27656;53.068;8.818;2024-01-15T06:01:22;99466.03;;;1.31;100.00
41967;BME280;27656;53.068;8.818;2024-01-15T06:03:49;99479.72;;;1.33;100.00
41967;BME280;27656;53.068;8.818;2024-01-15T06:06:15;99472.88;;;1.32;100.00
41967;BME280;27656;53.068;8.818;2024-01-15T06:08:42;99476.19;;;1.34;100.00
41967;BME280;27656;53.068;8.818;2024-01-15T06:11:08;99469.50;;;1.41;100.00
41967;BME280;27656;53.068;8.818;2024-01-15T06:13:35;99477.31;;;1.41;100.00
41967;BME280;27656;53.068;8.818;2024-01-15T06:16:01;99475.09;;;1.36;100.00
41967;BME280;27656;53.068;8.818;2024-01-15T06:18:31;99474.50;;;1.33;100.00
41967;BME280;27656;53.068;8.818;2024-01-15T06:20:58;99474.78;;;1.30;100.00
41967;BME280;27656;53.068;8.818;2024-01-15T06:23:24;99478.34;;;1.29;100.00
41967;BME280;27656;53.068;8.818;2024-01-15T06:25:50;99465.59;;;1.25;100.00
41967;BME280;27656;53.068;8.818;2024-01-15T06:28:17;99468.50;;;1.32;100.00
41967;BME280;27656;53.068;8.818;2024-01-15T06:30:43;99466.72;;;1.33;100.00
41967;BME280;27656;53.068;8.818;2024-01-15T06:33:10;99471.91;;;1.33;100.00
41967;BME280;27656;53.068;8.818;2024-01-15T06:35:37;99467.09;;;1.28;100.00
41967;BME280;27656;53.068;8.818;2024-01-15T06:38:03;99461.78;;;1.30;100.00
41967;BME280;27656;53.068;8.818;2024-01-15T06:40:30;99470.97;;;1.34;100.00
41967;BME280;27656;53.068;8.818;2024-01-15T06:42:56;99470.00;;;1.35;100.00
41967;BME280;27656;53.068;8.818;2024-01-15T06:45:22;99472.38;;;1.38;100.00
41967;BME280;27656;53.068;8.818;2024-01-15T06:47:49;99483.81;;;1.35;100.00
41967;BME280;27656;53.068;8.818;2024-01-15T06:50:16;99490.97;;;1.33;100.00
41967;BME280;27656;53.068;8.818;2024-01-15T06:52:42;99495.50;;;1.41;100.00
41967;BME280;27656;53.068;8.818;2024-01-15T06:55:08;99495.34;;;1.42;100.00
41967;BME280;27656;53.068;8.818;2024-01-15T06:57:35;99496.44;;;1.40;100.00
41967;BME280;27656;53.068;8.818;2024-01-15T07:00:01;99500.41;;;1.34;100.00
41967;BME280;27656;53.068;8.818;2024-01-15T07:02:31;99498.72;;;1.23;100.00
41967;BME280;27656;53.068;8.818;2024-01-15T07:04:57;99496.75;;;1.16;100.00
41967;BME280;27656;53.068;8.818;2024-01-15T07:07:24;99500.56;;;1.12;100.00
41967;BME280;27656;53.068;8.818;2024-01-15T07:09:51;99502.72;;;1.06;100.00
41967;BME280;27656;53.068;8.818;2024-01-15T07:12:18;99514.44;;;1.01;100.00
41967;BME280;27656;53.068;8.818;2024-01-15T07:14:45;99522.75;;;0.95;100.00
41967;BME280;27656;53.068;8.818;2024-01-15T07:17:11;99517.63;;;0.83;100.00
41967;BME280;27656;53.068;8.818;2024-01-15T07:19:37;99524.41;;;0.75;100.00
41967;BME280;27656;53.068;8.818;2024-01-15T07:22:04;99520.56;;;0.69;100.00
41967;BME280;27656;53.068;8.818;2024-01-15T07:24:31;99520.34;;;0.61;100.00
41967;BME280;27656;53.068;8.818;2024-01-15T07:26:57;99526.34;;;0.61;100.00
41967;BME280;27656;53.068;8.818;2024-01-15T07:29:24;99517.19;;;0.57;100.00
41967;BME280;27656;53.068;8.818;2024-01-15T07:31:51;99527.56;;;0.57;100.00
41967;BME280;27656;53.068;8.818;2024-01-15T07:34:18;99527.44;;;0.59;100.00
41967;BME280;27656;53.068;8.818;2024-01-15T07:36:45;99527.06;;;0.63;100.00
41967;BME280;27656;53.068;8.818;2024-01-15T07:39:12;99509.56;;;0.66;100.00
41967;BME280;27656;53.068;8.818;2024-01-15T07:41:38;99518.50;;;0.73;100.00
41967;BME280;27656;53.068;8.818;2024-01-15T07:44:05;99509.31;;;0.69;100.00
41967;BME280;27656;53.068;8.818;2024-01-15T07:46:31;99509.69;;;0.64;100.00
41967;BME280;27656;53.068;8.818;2024-01-15T07:48:58;99513.75;;;0.78;100.00
41967;BME280;27656;53.068;8.818;2024-01-15T07:51:25;99519.38;;;0.83;100.00
41967;BME280;27656;53.068;8.818;2024-01-15T07:53:53;99513.97;;;0.86;100.00
41967;BME280;27656;53.068;8.818;2024-01-15T07:56:20;99527.38;;;0.91;100.00
41967;BME280;27656;53.068;8.818;2024-01-15T07:58:47;99526.91;;;0.97;100.00
41967;BME280;27656;53.068;8.818;2024-01-15T08:01:14;99537.03;;;1.00;100.00
41967;BME280;27656;53.068;8.818;2024-01-15T08:03:40;99538.44;;;1.04;100.00
41967;BME280;27656;53.068;8.818;2024-01-15T08:06:07;99541.53;;;1.19;100.00
41967;BME280;27656;53.068;8.818;2024-01-15T08:08:37;99541.38;;;1.21;100.00
41967;BME280;27656;53.068;8.818;2024-01-15T08:11:03;99531.25;;;1.18;100.00
41967;BME280;27656;53.068;8.818;2024-01-15T08:13:30;99534.22;;;1.13;100.00
41967;BME280;27656;53.068;8.818;2024-01-15T08:15:57;99529.03;;;1.13;100.00
41967;BME280;27656;53.068;8.818;2024-01-15T08:18:23;99532.81;;;1.09;100.00
41967;BME280;27656;53.068;8.818;2024-01-15T08:20:50;99528.47;;;1.10;100.00
41967;BME280;27656;53.068;8.818;2024-01-15T08:23:18;99533.97;;;1.16;100.00
41967;BME280;27656;53.068;8.818;2024-01-15T08:25:46;99536.31;;;1.19;100.00
41967;BME280;27656;53.068;8.818;2024-01-15T08:28:12;99523.38;;;1.08;100.00
41967;BME280;27656;53.068;8.818;2024-01-15T08:30:39;99531.06;;;1.10;100.00
41967;BME280;27656;53.068;8.818;2024-01-15T08:33:05;99529.59;;;1.17;100.00
41967;BME280;27656;53.068;8.818;2024-01-15T08:35:43;99519.81;;;1.30;100.00
41967;BME280;27656;53.068;8.818;2024-01-15T08:38:10;99520.88;;;1.27;100.00
41967;BME280;27656;53.068;8.818;2024-01-15T08:40:36;99524.56;;;1.25;100.00
41967;BME280;27656;53.068;8.818;2024-01-15T08:43:03;99524.56;;;1.25;100.00
41967;BME280;27656;53.068;8.818;2024-01-15T08:45:30;99536.63;;;1.26;100.00
41967;BME280;27656;53.068;8.818;2024-01-15T08:47:58;99541.56;;;1.29;100.00
41967;BME280;27656;53.068;8.818;2024-01-15T08:50:24;99547.31;;;1.33;100.00
41967;BME280;27656;53.068;8.818;2024-01-15T08:52:51;99549.09;;;1.32;100.00
41967;BME280;27656;53.068;8.818;2024-01-15T08:55:18;99550.38;;;1.38;100.00
41967;BME280;27656;53.068;8.818;2024-01-15T08:57:44;99552.22;;;1.26;100.00
41967;BME280;27656;53.068;8.818;2024-01-15T09:00:11;99535.16;;;1.33;100.00
41967;BME280;27656;53.068;8.818;2024-01-15T09:02:38;99546.13;;;1.37;100.00
41967;BME280;27656;53.068;8.818;2024-01-15T09:05:04;99543.56;;;1.46;100.00
41967;BME280;27656;53.068;8.818;2024-01-15T09:07:32;99544.94;;;1.51;100.00
41967;BME280;27656;53.068;8.818;2024-01-15T09:09:58;99541.97;;;1.55;100.00
41967;BME280;27656;53.068;8.818;2024-01-15T09:12:26;99552.41;;;1.65;100.00
41967;BME280;27656;53.068;8.818;2024-01-15T09:14:53;99541.59;;;1.69;100.00
41967;BME280;27656;53.068;8.818;2024-01-15T09:17:20;99540.00;;;1.78;100.00
41967;BME280;27656;53.068;8.818;2024-01-15T09:19:48;99544.25;;;1.79;100.00
41967;BME280;27656;53.068;8.818;2024-01-15T09:22:15;99537.53;;;1.77;100.00
41967;BME280;27656;53.068;8.818;2024-01-15T09:24:45;99539.56;;;1.73;100.00
41967;BME280;27656;53.068;8.818;2024-01-15T09:27:12;99548.44;;;1.70;100.00
41967;BME280;27656;53.068;8.818;2024-01-15T09:29:38;99557.94;;;1.81;100.00
41967;BME280;27656;53.068;8.818;2024-01-15T09:32:07;99553.03;;;1.88;100.00
41967;BME280;27656;53.068;8.818;2024-01-15T09:34:34;99558.13;;;1.99;100.00
41967;BME280;27656;53.068;8.818;2024-01-15T09:37:01;99565.81;;;2.10;100.00
41967;BME280;27656;53.068;8.818;2024-01-15T09:39:29;99569.09;;;1.93;100.00
41967;BME280;27656;53.068;8.818;2024-01-15T09:41:56;99572.13;;;1.67;100.00
41967;BME280;27656;53.068;8.818;2024-01-15T09:44:23;99563.13;;;1.41;100.00
41967;BME280;27656;53.068;8.818;2024-01-15T09:46:52;99565.78;;;1.30;100.00
41967;BME280;27656;53.068;8.818;2024-01-15T09:49:23;99564.69;;;1.32;100.00
41967;BME280;27656;53.068;8.818;2024-01-15T09:51:50;99552.13;;;1.37;100.00
41967;BME280;27656;53.068;8.818;2024-01-15T09:54:31;99550.53;;;1.46;100.00
41967;BME280;27656;53.068;8.818;2024-01-15T09:56:59;99557.59;;;1.65;100.00
41967;BME280;27656;53.068;8.818;2024-01-15T09:59:26;99557.13;;;1.81;100.00
41967;BME280;27656;53.068;8.818;2024-01-15T10:01:53;99561.00;;;1.96;100.00
41967;BME280;27656;53.068;8.818;2024-01-15T10:04:21;99553.94;;;1.77;100.00
41967;BME280;27656;53.068;8.818;2024-01-15T10:06:50;99554.88;;;1.66;100.00
41967;BME280;27656;53.068;8.818;2024-01-15T10:09:17;99565.84;;;1.70;100.00
41967;BME280;27656;53.068;8.818;2024-01-15T10:11:44;99560.50;;;1.72;100.00
41967;BME280;27656;53.068;8.818;2024-01-15T10:14:12;99563.25;;;1.70;100.00
41967;BME280;27656;53.068;8.818;2024-01-15T10:16:42;99564.34;;;1.77;100.00
41967;BME280;27656;53.068;8.818;2024-01-15T10:19:09;99559.53;;;1.73;100.00
41967;BME280;27656;53.068;8.818;2024-01-15T10:21:37;99558.06;;;1.80;100.00
41967;BME280;27656;53.068;8.818;2024-01-15T10:24:04;99558.75;;;1.82;100.00
41967;BME280;27656;53.068;8.818;2024-01-15T10:26:31;99556.16;;;1.82;100.00
41967;BME280;27656;53.068;8.818;2024-01-15T10:28:58;99559.34;;;1.85;100.00
41967;BME280;27656;53.068;8.818;2024-01-15T10:31:25;99546.59;;;1.92;100.00
41967;BME280;27656;53.068;8.818;2024-01-15T10:34:09;99549.88;;;1.94;100.00
41967;BME280;27656;53.068;8.818;2024-01-15T10:36:39;99542.69;;;2.07;100.00
41967;BME280;27656;53.068;8.818;2024-01-15T10:39:06;99549.69;;;2.17;100.00
41967;BME280;27656;53.068;8.818;2024-01-15T10:41:34;99544.63;;;2.25;100.00
41967;BME280;27656;53.068;8.818;2024-01-15T10:44:04;99545.16;;;2.19;100.00
41967;BME280;27656;53.068;8.818;2024-01-15T10:46:34;99544.38;;;2.28;100.00
41967;BME280;27656;53.068;8.818;2024-01-15T10:49:01;99542.28;;;2.22;100.00
41967;BME280;27656;53.068;8.818;2024-01-15T10:51:28;99548.88;;;2.16;100.00
41967;BME280;27656;53.068;8.818;2024-01-15T10:53:56;99550.22;;;2.10;100.00
41967;BME280;27656;53.068;8.818;2024-01-15T10:56:23;99565.25;;;1.97;100.00
41967;BME280;27656;53.068;8.818;2024-01-15T10:58:51;99555.69;;;2.07;100.00
41967;BME280;27656;53.068;8.818;2024-01-15T11:01:20;99555.97;;;2.04;100.00
41967;BME280;27656;53.068;8.818;2024-01-15T11:03:47;99557.19;;;2.00;100.00
41967;BME280;27656;53.068;8.818;2024-01-15T11:06:18;99554.16;;;1.95;100.00
41967;BME280;27656;53.068;8.818;2024-01-15T11:08:52;99552.88;;;1.80;100.00
41967;BME280;27656;53.068;8.818;2024-01-15T11:11:20;99551.19;;;1.69;100.00
41967;BME280;27656;53.068;8.818;2024-01-15T11:13:47;99545.06;;;1.80;100.00
41967;BME280;27656;53.068;8.818;2024-01-15T11:16:17;99544.38;;;1.87;100.00
41967;BME280;27656;53.068;8.818;2024-01-15T11:19:01;99544.69;;;1.94;100.00
41967;BME280;27656;53.068;8.818;2024-01-15T11:21:29;99541.97;;;2.05;100.00
41967;BME280;27656;53.068;8.818;2024-01-15T11:24:00;99541.75;;;2.28;100.00
41967;BME280;27656;53.068;8.818;2024-01-15T11:26:46;99546.97;;;2.38;100.00
41967;BME280;27656;53.068;8.818;2024-01-15T11:32:09;99546.28;;;2.36;100.00
41967;BME280;27656;53.068;8.818;2024-01-15T11:34:58;99544.78;;;2.52;100.00
41967;BME280;27656;53.068;8.818;2024-01-15T11:37:29;99542.31;;;2.70;100.00
41967;BME280;27656;53.068;8.818;2024-01-15T11:40:01;99545.34;;;2.66;100.00
41967;BME280;27656;53.068;8.818;2024-01-15T11:42:30;99550.13;;;2.70;100.00
41967;BME280;27656;53.068;8.818;2024-01-15T11:44:56;99545.88;;;2.79;100.00
41967;BME280;27656;53.068;8.818;2024-01-15T11:50:21;99546.69;;;2.99;100.00
41967;BME280;27656;53.068;8.818;2024-01-15T11:53:26;99545.28;;;3.14;100.00
41967;BME280;27656;53.068;8.818;2024-01-15T11:55:58;99546.81;;;3.07;100.00
41967;BME280;27656;53.068;8.818;2024-01-15T11:58:24;99549.72;;;2.94;100.00
41967;BME280;27656;53.068;8.818;2024-01-15T12:00:52;99550.38;;;2.96;100.00
41967;BME280;27656;53.068;8.818;2024-01-15T12:03:23;99549.81;;;3.03;100.00
41967;BME280;27656;53.068;8.818;2024-01-15T12:05:52;99539.38;;;3.12;100.00
41967;BME280;27656;53.068;8.818;2024-01-15T12:08:22;99542.28;;;3.09;100.00
41967;BME280;27656;53.068;8.818;2024-01-15T12:10:49;99540.50;;;3.00;100.00
41967;BME280;27656;53.068;8.818;2024-01-15T12:13:16;99537.22;;;2.98;100.00
41967;BME280;27656;53.068;8.818;2024-01-15T12:15:45;99549.72;;;2.94;100.00
41967;BME280;27656;53.068;8.818;2024-01-15T12:18:14;99547.78;;;2.87;100.00
41967;BME280;27656;53.068;8.818;2024-01-15T12:20:42;99551.38;;;2.76;100.00
41967;BME280;27656;53.068;8.818;2024-01-15T12:23:09;99557.53;;;2.75;100.00
41967;BME280;27656;53.068;8.818;2024-01-15T12:25:37;99546.13;;;2.95;100.00
41967;BME280;27656;53.068;8.818;2024-01-15T12:28:04;99536.50;;;3.06;100.00
41967;BME280;27656;53.068;8.818;2024-01-15T12:30:33;99541.59;;;2.97;100.00
41967;BME280;27656;53.068;8.818;2024-01-15T12:33:04;99552.56;;;3.11;100.00
41967;BME280;27656;53.068;8.818;2024-01-15T12:35:31;99549.81;;;3.03;100.00
41967;BME280;27656;53.068;8.818;2024-01-15T12:38:00;99547.91;;;3.05;100.00
41967;BME280;27656;53.068;8.818;2024-01-15T12:40:28;99560.81;;;3.06;100.00
41967;BME280;27656;53.068;8.818;2024-01-15T12:42:55;99562.19;;;2.91;100.00
41967;BME280;27656;53.068;8.818;2024-01-15T12:45:22;99558.34;;;2.95;100.00
41967;BME280;27656;53.068;8.818;2024-01-15T12:47:48;99562.75;;;2.94;100.00
41967;BME280;27656;53.068;8.818;2024-01-15T12:50:16;99564.25;;;2.68;100.00
41967;BME280;27656;53.068;8.818;2024-01-15T12:52:46;99567.53;;;2.60;100.00
41967;BME280;27656;53.068;8.818;2024-01-15T12:55:13;99562.63;;;2.47;100.00
41967;BME280;27656;53.068;8.818;2024-01-15T12:57:40;99562.22;;;2.52;100.00
41967;BME280;27656;53.068;8.818;2024-01-15T13:00:07;99563.03;;;2.52;100.00
41967;BME280;27656;53.068;8.818;2024-01-15T13:02:38;99562.88;;;2.44;100.00
41967;BME280;27656;53.068;8.818;2024-01-15T13:05:08;99563.94;;;2.32;100.00
41967;BME280;27656;53.068;8.818;2024-01-15T13:07:35;99568.31;;;2.22;100.00